Time;durP1;ratioP1;P1;durP2;ratioP2;P2;SDS_P1;SDS_P2;PMS_P1;PMS_P2;Temp;Humidity;BMP_temperature;BMP_pressure;BME280_temperature;BME280_humidity;BME280_pressure;Samples;Min_cycle;Max_cycle;Signal;HPM_P1;HPM_P2
2022/10/12 00:00:35;;;;;;;21.13;19.80;;;;;;;;;;5114002;28;20209;-76
2022/10/12 00:03:03;;;;;;;21.52;19.67;;;;;;;;;;5113541;28;20229;-77
2022/10/12 00:05:30;;;;;;;20.90;19.60;;;;;;;;;;5113400;27;20213;-77
2022/10/12 00:07:57;;;;;;;20.77;19.57;;;;;;;;;;5113816;28;20210;-77
2022/10/12 00:10:25;;;;;;;21.25;19.52;;;;;;;;;;5113878;28;20921;-77
2022/10/12 00:12:52;;;;;;;21.67;20.05;;;;;;;;;;5113208;28;20232;-76
2022/10/12 00:15:19;;;;;;;20.40;19.13;;;;;;;;;;5114291;28;20203;-76
2022/10/12 00:17:48;;;;;;;21.98;20.38;;;;;;;;;;5114188;28;20790;-77
2022/10/12 00:20:15;;;;;;;21.05;19.80;;;;;;;;;;5113770;28;20204;-77
2022/10/12 00:22:43;;;;;;;20.02;18.83;;;;;;;;;;5112761;27;20580;-77
2022/10/12 00:25:11;;;;;;;21.10;19.75;;;;;;;;;;5113869;28;20212;-77
2022/10/12 00:27:41;;;;;;;19.95;18.65;;;;;;;;;;5113766;28;20698;-76
2022/10/12 00:30:09;;;;;;;21.13;19.73;;;;;;;;;;5113880;28;20224;-76
2022/10/12 00:32:36;;;;;;;20.38;19.27;;;;;;;;;;5113316;28;20231;-77
2022/10/12 00:35:05;;;;;;;19.73;18.52;;;;;;;;;;5113752;28;20219;-76
2022/10/12 00:37:33;;;;;;;19.23;18.23;;;;;;;;;;5113925;28;20227;-77
2022/10/12 00:40:00;;;;;;;21.92;20.00;;;;;;;;;;5113906;28;20597;-76
2022/10/12 00:42:28;;;;;;;19.58;18.38;;;;;;;;;;5112936;27;20233;-77
2022/10/12 00:44:55;;;;;;;19.00;17.90;;;;;;;;;;5113876;28;20203;-76
2022/10/12 00:47:25;;;;;;;19.25;18.15;;;;;;;;;;5113842;28;20214;-76
2022/10/12 00:49:55;;;;;;;19.90;18.70;;;;;;;;;;5113832;28;20208;-77
2022/10/12 00:52:29;;;;;;;19.42;18.35;;;;;;;;;;5113074;28;20228;-76
2022/10/12 00:54:56;;;;;;;20.30;19.15;;;;;;;;;;5113354;27;20242;-76
2022/10/12 00:57:24;;;;;;;20.27;18.70;;;;;;;;;;5113623;28;20208;-76
2022/10/12 00:59:55;;;;;;;20.70;19.40;;;;;;;;;;5113859;28;20211;-77
2022/10/12 01:02:23;;;;;;;20.00;18.80;;;;;;;;;;5113022;28;20224;-76
2022/10/12 01:04:51;;;;;;;20.40;18.60;;;;;;;;;;5113272;27;20205;-77
2022/10/12 01:07:18;;;;;;;21.10;19.23;;;;;;;;;;5113506;28;20648;-76
2022/10/12 01:09:47;;;;;;;19.70;18.23;;;;;;;;;;5113689;28;20203;-76
2022/10/12 01:12:15;;;;;;;19.63;18.40;;;;;;;;;;5112686;28;20207;-77
2022/10/12 01:14:43;;;;;;;19.65;18.45;;;;;;;;;;5113264;28;20219;-77
2022/10/12 01:17:19;;;;;;;19.60;18.50;;;;;;;;;;5117027;28;20577;-76
2022/10/12 01:20:01;;;;;;;20.45;18.83;;;;;;;;;;5116969;28;20540;-77
2022/10/12 01:22:29;;;;;;;19.67;18.27;;;;;;;;;;5082524;28;20228;-77
2022/10/12 01:25:03;;;;;;;19.55;18.45;;;;;;;;;;5117188;28;20587;-76
2022/10/12 01:27:36;;;;;;;20.00;18.80;;;;;;;;;;5117024;28;20181;-77
2022/10/12 01:30:17;;;;;;;20.92;19.25;;;;;;;;;;5116876;28;20551;-77
2022/10/12 01:32:54;;;;;;;19.83;18.42;;;;;;;;;;5116299;28;20691;-77
2022/10/12 01:35:25;;;;;;;19.73;18.50;;;;;;;;;;5116212;27;20235;-77
2022/10/12 01:37:57;;;;;;;20.08;18.70;;;;;;;;;;5116664;28;20236;-76
2022/10/12 01:40:28;;;;;;;19.60;18.40;;;;;;;;;;5116866;28;20230;-76
2022/10/12 01:42:56;;;;;;;19.20;18.10;;;;;;;;;;5115943;28;20273;-76
2022/10/12 01:45:25;;;;;;;19.88;18.67;;;;;;;;;;5116943;28;20204;-77
2022/10/12 01:47:53;;;;;;;19.45;18.15;;;;;;;;;;5116644;28;20283;-76
2022/10/12 01:50:23;;;;;;;20.45;19.08;;;;;;;;;;5116629;28;20205;-76
2022/10/12 01:52:57;;;;;;;20.08;18.77;;;;;;;;;;5115592;27;20229;-77
2022/10/12 01:55:29;;;;;;;20.45;18.80;;;;;;;;;;5116496;28;20217;-76
2022/10/12 01:58:05;;;;;;;19.83;18.73;;;;;;;;;;5116213;28;20185;-76
2022/10/12 02:00:35;;;;;;;19.30;18.20;;;;;;;;;;5116331;28;20180;-76
2022/10/12 02:03:10;;;;;;;20.42;19.02;;;;;;;;;;5115781;28;20563;-77
2022/10/12 02:05:38;;;;;;;19.33;18.13;;;;;;;;;;5116825;28;20204;-76
2022/10/12 02:08:09;;;;;;;19.65;18.35;;;;;;;;;;5116230;28;20211;-77
2022/10/12 02:10:39;;;;;;;19.50;18.33;;;;;;;;;;5116229;28;20240;-76
2022/10/12 02:13:07;;;;;;;19.70;18.30;;;;;;;;;;5114751;27;20243;-77
2022/10/12 02:15:38;;;;;;;20.02;18.70;;;;;;;;;;5116288;28;20552;-76
2022/10/12 02:18:06;;;;;;;19.63;18.35;;;;;;;;;;5116187;28;20193;-76
2022/10/12 02:20:34;;;;;;;19.65;18.15;;;;;;;;;;5116358;28;20593;-76
2022/10/12 02:23:02;;;;;;;19.25;18.05;;;;;;;;;;5115412;28;20249;-77
2022/10/12 02:25:31;;;;;;;19.05;17.90;;;;;;;;;;5115956;28;20200;-76
2022/10/12 02:28:00;;;;;;;19.00;17.90;;;;;;;;;;5114795;28;20208;-77
2022/10/12 02:30:28;;;;;;;19.40;17.90;;;;;;;;;;5116017;28;20208;-76
2022/10/12 02:33:00;;;;;;;19.80;18.60;;;;;;;;;;5114385;27;20230;-77
2022/10/12 02:35:32;;;;;;;21.77;19.98;;;;;;;;;;5115684;28;20203;-76
2022/10/12 02:38:02;;;;;;;19.65;18.35;;;;;;;;;;5115649;28;20685;-76
2022/10/12 02:40:32;;;;;;;18.85;17.83;;;;;;;;;;5115899;28;20208;-76
2022/10/12 02:43:04;;;;;;;19.70;18.08;;;;;;;;;;5115068;28;20267;-76
2022/10/12 02:45:33;;;;;;;20.27;18.08;;;;;;;;;;5115555;28;20233;-76
2022/10/12 02:48:02;;;;;;;20.00;18.83;;;;;;;;;;5114717;27;20211;-77
2022/10/12 02:50:30;;;;;;;19.35;18.23;;;;;;;;;;5115781;28;20203;-76
2022/10/12 02:52:58;;;;;;;19.55;18.55;;;;;;;;;;5114609;28;20220;-77
2022/10/12 02:55:26;;;;;;;19.83;18.63;;;;;;;;;;5114999;28;20714;-76
2022/10/12 02:57:53;;;;;;;19.50;18.30;;;;;;;;;;5115419;28;20200;-77
2022/10/12 03:00:20;;;;;;;19.17;18.05;;;;;;;;;;5115319;28;20204;-77
2022/10/12 03:02:48;;;;;;;19.83;18.60;;;;;;;;;;5114014;27;20223;-77
2022/10/12 03:05:16;;;;;;;19.02;17.83;;;;;;;;;;5115238;28;20204;-76
2022/10/12 03:07:44;;;;;;;19.45;18.05;;;;;;;;;;5115044;28;20204;-77
2022/10/12 03:10:11;;;;;;;19.70;18.30;;;;;;;;;;5115307;28;20270;-76
2022/10/12 03:12:38;;;;;;;19.58;18.05;;;;;;;;;;5114186;28;20237;-76
2022/10/12 03:15:06;;;;;;;19.60;18.50;;;;;;;;;;5114990;28;20220;-76
2022/10/12 03:17:34;;;;;;;19.75;18.45;;;;;;;;;;5114714;28;20204;-76
2022/10/12 03:20:01;;;;;;;19.10;18.00;;;;;;;;;;5114595;28;20699;-77
2022/10/12 03:22:30;;;;;;;18.67;17.75;;;;;;;;;;5113623;27;20239;-77
2022/10/12 03:24:59;;;;;;;19.50;18.30;;;;;;;;;;5114389;28;20192;-77
2022/10/12 03:27:26;;;;;;;19.60;18.35;;;;;;;;;;5114593;28;20619;-77
2022/10/12 03:29:53;;;;;;;20.70;19.30;;;;;;;;;;5115347;28;20218;-76
2022/10/12 03:32:21;;;;;;;19.65;18.40;;;;;;;;;;5113764;28;20231;-77
2022/10/12 03:34:48;;;;;;;19.45;18.35;;;;;;;;;;5114748;28;20254;-76
2022/10/12 03:37:16;;;;;;;20.15;18.85;;;;;;;;;;5115080;28;20598;-76
2022/10/12 03:39:45;;;;;;;18.70;17.60;;;;;;;;;;5114270;28;20204;-77
2022/10/12 03:42:12;;;;;;;20.20;18.88;;;;;;;;;;5113622;27;20254;-77
2022/10/12 03:44:40;;;;;;;19.33;18.00;;;;;;;;;;5114139;28;20198;-76
2022/10/12 03:47:07;;;;;;;19.60;18.50;;;;;;;;;;5115121;28;20221;-76
2022/10/12 03:49:35;;;;;;;19.85;18.70;;;;;;;;;;5114247;28;20219;-76
2022/10/12 03:52:02;;;;;;;19.10;18.00;;;;;;;;;;5113683;28;20215;-77
2022/10/12 03:54:29;;;;;;;19.33;18.23;;;;;;;;;;5113546;27;20219;-76
2022/10/12 03:56:58;;;;;;;19.67;18.58;;;;;;;;;;5114107;28;20203;-76
2022/10/12 03:59:25;;;;;;;20.35;18.40;;;;;;;;;;5114017;28;20201;-76
2022/10/12 04:01:53;;;;;;;19.40;18.40;;;;;;;;;;5113826;28;20540;-76
2022/10/12 04:04:20;;;;;;;19.85;18.55;;;;;;;;;;5113580;27;20291;-77
2022/10/12 04:06:47;;;;;;;19.75;18.48;;;;;;;;;;5114209;28;20205;-76
2022/10/12 04:09:15;;;;;;;20.35;19.00;;;;;;;;;;5114391;28;20214;-76
2022/10/12 04:11:42;;;;;;;19.92;18.70;;;;;;;;;;5113328;28;20209;-77
2022/10/12 04:14:11;;;;;;;20.95;19.65;;;;;;;;;;5114405;28;20578;-76
2022/10/12 04:16:38;;;;;;;20.00;18.55;;;;;;;;;;5114570;28;20204;-76
2022/10/12 04:19:06;;;;;;;20.65;18.67;;;;;;;;;;5114104;28;20537;-76
2022/10/12 04:21:33;;;;;;;19.98;18.60;;;;;;;;;;5113559;28;20223;-77
2022/10/12 04:24:00;;;;;;;20.67;18.83;;;;;;;;;;5113588;27;20226;-77
2022/10/12 04:26:28;;;;;;;20.23;18.80;;;;;;;;;;5113946;28;20207;-77
2022/10/12 04:28:55;;;;;;;19.88;18.77;;;;;;;;;;5113842;28;20221;-76
2022/10/12 04:31:24;;;;;;;19.77;18.58;;;;;;;;;;5113483;28;20204;-76
2022/10/12 04:33:55;;;;;;;19.63;18.40;;;;;;;;;;5113335;27;20571;-76
2022/10/12 04:36:22;;;;;;;21.52;20.05;;;;;;;;;;5113657;28;20228;-76
2022/10/12 04:38:50;;;;;;;20.35;19.05;;;;;;;;;;5113886;28;20205;-76
2022/10/12 04:41:17;;;;;;;20.60;19.08;;;;;;;;;;5113139;28;20212;-76
2022/10/12 04:43:45;;;;;;;19.92;18.63;;;;;;;;;;5113716;28;20235;-76
2022/10/12 04:46:12;;;;;;;19.67;18.30;;;;;;;;;;5113816;28;20205;-76
2022/10/12 04:48:41;;;;;;;19.60;18.50;;;;;;;;;;5114055;28;20211;-76
2022/10/12 04:51:09;;;;;;;20.17;19.05;;;;;;;;;;5115193;28;20613;-76
2022/10/12 04:53:36;;;;;;;20.23;18.90;;;;;;;;;;5117096;27;20220;-76
2022/10/12 04:56:04;;;;;;;20.77;19.40;;;;;;;;;;5117602;28;20224;-77
2022/10/12 04:58:32;;;;;;;20.77;19.48;;;;;;;;;;5117316;28;20208;-76
2022/10/12 05:00:59;;;;;;;20.60;19.30;;;;;;;;;;5117117;28;20204;-76
2022/10/12 05:03:27;;;;;;;21.02;19.70;;;;;;;;;;5117473;28;20220;-76
2022/10/12 05:05:56;;;;;;;20.73;19.15;;;;;;;;;;5116900;27;20200;-77
2022/10/12 05:08:23;;;;;;;20.30;18.98;;;;;;;;;;5117498;28;20280;-76
2022/10/12 05:10:51;;;;;;;20.40;19.30;;;;;;;;;;5117808;28;20207;-77
2022/10/12 05:13:18;;;;;;;20.63;19.15;;;;;;;;;;5116930;28;20238;-76
2022/10/12 05:15:45;;;;;;;20.00;18.80;;;;;;;;;;5117148;28;20223;-76
2022/10/12 05:18:13;;;;;;;20.88;19.65;;;;;;;;;;5117332;28;20299;-77
2022/10/12 05:20:40;;;;;;;20.90;19.50;;;;;;;;;;5117313;28;20210;-76
2022/10/12 05:23:10;;;;;;;21.58;19.85;;;;;;;;;;5115916;27;20223;-77
2022/10/12 05:25:38;;;;;;;21.00;19.58;;;;;;;;;;5117634;28;20201;-76
2022/10/12 05:28:06;;;;;;;19.60;18.40;;;;;;;;;;5116777;28;20215;-76
2022/10/12 05:30:34;;;;;;;22.30;20.10;;;;;;;;;;5117214;28;20203;-76
2022/10/12 05:33:01;;;;;;;20.15;18.85;;;;;;;;;;5116616;28;20220;-76
2022/10/12 05:35:28;;;;;;;21.67;20.10;;;;;;;;;;5116860;28;20231;-76
2022/10/12 05:37:56;;;;;;;20.45;19.25;;;;;;;;;;5117092;28;20193;-76
2022/10/12 05:40:25;;;;;;;22.35;20.75;;;;;;;;;;5116760;28;20300;-76
2022/10/12 05:42:52;;;;;;;21.13;19.42;;;;;;;;;;5115661;27;20227;-76
2022/10/12 05:45:19;;;;;;;21.13;19.83;;;;;;;;;;5117100;28;20200;-77
2022/10/12 05:47:46;;;;;;;21.17;19.52;;;;;;;;;;5117023;28;20206;-77
2022/10/12 05:50:14;;;;;;;21.77;20.33;;;;;;;;;;5116696;28;20210;-77
2022/10/12 05:52:41;;;;;;;21.40;19.60;;;;;;;;;;5115702;28;20718;-78
2022/10/12 05:55:09;;;;;;;21.20;19.60;;;;;;;;;;5115893;27;20262;-76
2022/10/12 05:57:37;;;;;;;21.80;20.20;;;;;;;;;;5116882;28;20207;-77
2022/10/12 06:00:05;;;;;;;23.05;21.23;;;;;;;;;;5117077;28;20210;-76
2022/10/12 06:02:33;;;;;;;23.70;21.83;;;;;;;;;;5115716;28;20224;-74
2022/10/12 06:05:00;;;;;;;21.38;20.08;;;;;;;;;;5115952;27;20216;-74
2022/10/12 06:07:28;;;;;;;22.30;20.80;;;;;;;;;;5116437;28;20265;-74
2022/10/12 06:09:55;;;;;;;21.52;20.02;;;;;;;;;;5115956;28;20205;-76
2022/10/12 06:12:25;;;;;;;21.23;19.88;;;;;;;;;;5115455;28;20235;-77
2022/10/12 06:14:54;;;;;;;24.05;22.35;;;;;;;;;;5115651;27;20207;-74
2022/10/12 06:17:21;;;;;;;22.00;20.45;;;;;;;;;;5116054;28;20634;-74
2022/10/12 06:19:49;;;;;;;22.88;21.38;;;;;;;;;;5116060;28;20211;-73
2022/10/12 06:22:16;;;;;;;23.10;21.10;;;;;;;;;;5115089;28;20216;-73
2022/10/12 06:24:43;;;;;;;23.33;21.52;;;;;;;;;;5115221;27;20687;-74
2022/10/12 06:27:11;;;;;;;21.85;20.33;;;;;;;;;;5115921;28;20203;-74
2022/10/12 06:29:39;;;;;;;21.92;20.52;;;;;;;;;;5115582;28;20204;-74
2022/10/12 06:32:08;;;;;;;22.65;21.05;;;;;;;;;;5114770;28;20211;-74
2022/10/12 06:34:35;;;;;;;21.38;19.75;;;;;;;;;;5115992;28;20211;-74
2022/10/12 06:37:02;;;;;;;22.10;20.08;;;;;;;;;;5126014;27;20215;-74
2022/10/12 06:39:30;;;;;;;21.10;19.70;;;;;;;;;;5136388;27;20595;-73
2022/10/12 06:41:57;;;;;;;22.38;20.65;;;;;;;;;;5135494;27;20207;-73
2022/10/12 06:44:24;;;;;;;23.08;21.30;;;;;;;;;;5136073;27;20221;-74
2022/10/12 06:46:52;;;;;;;22.02;19.98;;;;;;;;;;5135070;27;20219;-73
2022/10/12 06:49:20;;;;;;;21.20;19.80;;;;;;;;;;5136199;27;20203;-74
2022/10/12 06:51:48;;;;;;;21.48;20.17;;;;;;;;;;5135252;27;20667;-74
2022/10/12 06:54:15;;;;;;;21.85;20.40;;;;;;;;;;5135623;27;20593;-74
2022/10/12 06:56:43;;;;;;;21.70;19.92;;;;;;;;;;5135723;27;20224;-74
2022/10/12 06:59:12;;;;;;;23.02;21.50;;;;;;;;;;5136110;27;20203;-74
2022/10/12 07:01:40;;;;;;;22.83;20.90;;;;;;;;;;5135334;27;20234;-74
2022/10/12 07:04:07;;;;;;;22.42;21.08;;;;;;;;;;5135534;27;20223;-74
2022/10/12 07:06:36;;;;;;;21.92;20.73;;;;;;;;;;5135411;27;20195;-76
2022/10/12 07:09:03;;;;;;;23.33;21.70;;;;;;;;;;5135716;27;20204;-73
2022/10/12 07:11:30;;;;;;;22.50;21.00;;;;;;;;;;5132945;27;20215;-83
2022/10/12 07:13:58;;;;;;;22.43;20.90;;;;;;;;;;5121774;28;20232;-84
2022/10/12 07:16:25;;;;;;;22.58;21.08;;;;;;;;;;5115694;28;21024;-77
2022/10/12 07:18:52;;;;;;;22.45;20.80;;;;;;;;;;5114964;28;20216;-78
2022/10/12 07:21:20;;;;;;;22.77;21.20;;;;;;;;;;5113865;28;20203;-76
2022/10/12 07:23:49;;;;;;;22.88;21.00;;;;;;;;;;5132320;27;20486;-77
2022/10/12 07:26:17;;;;;;;21.95;20.45;;;;;;;;;;5135079;27;20234;-76
2022/10/12 07:28:44;;;;;;;21.33;19.83;;;;;;;;;;5135178;27;20204;-78
2022/10/12 07:31:11;;;;;;;21.10;19.70;;;;;;;;;;5134633;27;20204;-77
2022/10/12 07:33:39;;;;;;;21.00;19.80;;;;;;;;;;5134433;27;20255;-76
2022/10/12 07:36:07;;;;;;;22.30;20.25;;;;;;;;;;5135412;27;20208;-77
2022/10/12 07:38:34;;;;;;;22.00;20.47;;;;;;;;;;5134868;27;20583;-76
2022/10/12 07:41:03;;;;;;;21.00;19.60;;;;;;;;;;5135173;27;20446;-75
2022/10/12 07:43:32;;;;;;;21.30;19.87;;;;;;;;;;5136050;27;20492;-76
2022/10/12 07:46:00;;;;;;;21.17;19.70;;;;;;;;;;5115411;27;20465;-80
2022/10/12 07:48:27;;;;;;;20.25;19.05;;;;;;;;;;5117377;28;20443;-80
2022/10/12 07:50:55;;;;;;;21.65;19.90;;;;;;;;;;5113940;28;20217;-76
2022/10/12 07:53:22;;;;;;;20.63;19.63;;;;;;;;;;5114467;28;20229;-78
2022/10/12 07:55:52;;;;;;;19.13;17.67;;;;;;;;;;5113524;27;20471;-78
2022/10/12 07:58:21;;;;;;;18.83;17.60;;;;;;;;;;5113237;28;20650;-75
2022/10/12 08:00:48;;;;;;;18.40;16.80;;;;;;;;;;5113518;28;20211;-76
2022/10/12 08:03:16;;;;;;;18.30;17.00;;;;;;;;;;5111269;28;20475;-77
2022/10/12 08:05:43;;;;;;;19.27;17.30;;;;;;;;;;5112157;28;20449;-75
2022/10/12 08:08:10;;;;;;;18.63;16.93;;;;;;;;;;5112298;28;20415;-76
2022/10/12 08:10:38;;;;;;;18.80;17.50;;;;;;;;;;5113079;28;20428;-76
2022/10/12 08:13:05;;;;;;;18.63;17.33;;;;;;;;;;5111849;28;20490;-76
2022/10/12 08:15:34;;;;;;;19.37;17.47;;;;;;;;;;5112750;28;20421;-76
2022/10/12 08:18:01;;;;;;;20.53;18.80;;;;;;;;;;5113476;28;20407;-76
2022/10/12 08:20:28;;;;;;;19.13;17.87;;;;;;;;;;5113276;28;20454;-76
2022/10/12 08:22:56;;;;;;;18.80;17.60;;;;;;;;;;5112759;28;20446;-76
2022/10/12 08:25:23;;;;;;;19.33;17.97;;;;;;;;;;5114108;28;20437;-76
2022/10/12 08:27:51;;;;;;;18.93;17.70;;;;;;;;;;5117083;28;20935;-76
2022/10/12 08:30:19;;;;;;;20.97;19.00;;;;;;;;;;5117167;28;20492;-76
2022/10/12 08:32:48;;;;;;;20.43;19.03;;;;;;;;;;5116927;28;20471;-76
2022/10/12 08:35:15;;;;;;;20.87;19.30;;;;;;;;;;5116962;28;20455;-76
2022/10/12 08:37:42;;;;;;;21.58;19.95;;;;;;;;;;5117151;28;20834;-76
2022/10/12 08:40:11;;;;;;;22.70;20.80;;;;;;;;;;5117231;28;20205;-75
2022/10/12 08:42:43;;;;;;;20.60;19.20;;;;;;;;;;5116577;28;20451;-75
2022/10/12 08:45:18;;;;;;;20.40;19.10;;;;;;;;;;5116961;28;20854;-75
2022/10/12 08:47:47;;;;;;;21.90;20.10;;;;;;;;;;5117326;28;20415;-75
2022/10/12 08:50:18;;;;;;;21.20;19.80;;;;;;;;;;5117037;28;20433;-76
2022/10/12 08:52:50;;;;;;;21.58;19.90;;;;;;;;;;5116414;28;20478;-76
2022/10/12 08:55:20;;;;;;;20.10;18.70;;;;;;;;;;5117162;28;20193;-76
2022/10/12 08:57:47;;;;;;;22.10;20.57;;;;;;;;;;5116724;28;20481;-76
2022/10/12 09:00:15;;;;;;;23.90;21.60;;;;;;;;;;5116805;28;20463;-76
2022/10/12 09:02:57;;;;;;;22.07;20.47;;;;;;;;;;5116187;28;20870;-76
2022/10/12 09:05:30;;;;;;;21.07;19.50;;;;;;;;;;5116589;28;20452;-75
2022/10/12 09:08:00;;;;;;;21.73;19.93;;;;;;;;;;5116483;28;20454;-76
2022/10/12 09:10:33;;;;;;;20.53;18.93;;;;;;;;;;5116895;28;20462;-77
2022/10/12 09:13:04;;;;;;;20.50;19.13;;;;;;;;;;5115893;28;20486;-76
2022/10/12 09:15:33;;;;;;;20.03;18.73;;;;;;;;;;5116574;28;20501;-75
2022/10/12 09:18:01;;;;;;;22.90;21.13;;;;;;;;;;5116021;28;20486;-76
2022/10/12 09:20:34;;;;;;;21.33;19.60;;;;;;;;;;5116286;28;21125;-76
2022/10/12 09:23:02;;;;;;;22.23;21.03;;;;;;;;;;5115742;28;20476;-77
2022/10/12 09:25:30;;;;;;;20.40;19.13;;;;;;;;;;5116092;28;20508;-77
2022/10/12 09:27:58;;;;;;;21.53;20.00;;;;;;;;;;5116211;28;20429;-76
2022/10/12 09:30:26;;;;;;;20.70;19.50;;;;;;;;;;5115915;28;20452;-76
2022/10/12 09:32:58;;;;;;;21.93;19.80;;;;;;;;;;5115504;28;20477;-76
2022/10/12 09:35:26;;;;;;;20.77;19.30;;;;;;;;;;5115758;28;20405;-76
2022/10/12 09:37:55;;;;;;;21.17;19.57;;;;;;;;;;5115138;28;20475;-76
2022/10/12 09:40:24;;;;;;;21.00;19.10;;;;;;;;;;5115761;28;20422;-76
2022/10/12 09:42:52;;;;;;;19.70;18.40;;;;;;;;;;5115099;28;20834;-75
2022/10/12 09:45:21;;;;;;;21.10;19.60;;;;;;;;;;5115614;28;20428;-76
2022/10/12 09:48:07;;;;;;;19.63;18.13;;;;;;;;;;5115517;28;21041;-76
2022/10/12 09:50:39;;;;;;;20.30;18.70;;;;;;;;;;5115510;28;20937;-75
2022/10/12 09:53:14;;;;;;;20.43;19.03;;;;;;;;;;5114941;28;20502;-76
2022/10/12 09:55:41;;;;;;;21.57;19.67;;;;;;;;;;5115531;28;20938;-77
2022/10/12 09:58:18;;;;;;;21.37;19.63;;;;;;;;;;5115300;28;20487;-76
2022/10/12 10:00:45;;;;;;;20.77;19.07;;;;;;;;;;5115643;28;20414;-75
2022/10/12 10:03:23;;;;;;;20.90;19.30;;;;;;;;;;5114811;28;20468;-76
2022/10/12 10:06:02;;;;;;;20.37;19.07;;;;;;;;;;5115319;28;20398;-76
2022/10/12 10:08:39;;;;;;;20.60;19.00;;;;;;;;;;5115520;28;20427;-77
2022/10/12 10:11:13;;;;;;;21.20;19.57;;;;;;;;;;5114707;28;20421;-76
2022/10/12 10:13:45;;;;;;;20.47;18.90;;;;;;;;;;5115631;28;20979;-75
2022/10/12 10:16:12;;;;;;;19.50;18.10;;;;;;;;;;5115172;28;20402;-76
2022/10/12 10:18:42;;;;;;;20.23;18.63;;;;;;;;;;5115298;28;20927;-75
2022/10/12 10:21:09;;;;;;;19.70;18.30;;;;;;;;;;5114611;28;20959;-76
2022/10/12 10:23:40;;;;;;;21.03;19.50;;;;;;;;;;5114810;28;20468;-76
2022/10/12 10:26:08;;;;;;;23.30;21.50;;;;;;;;;;5115251;28;20406;-76
2022/10/12 10:28:37;;;;;;;22.63;20.97;;;;;;;;;;5115247;28;20419;-77
2022/10/12 10:31:05;;;;;;;21.10;19.57;;;;;;;;;;5114276;28;20443;-78
2022/10/12 10:33:33;;;;;;;20.87;19.57;;;;;;;;;;5114983;28;20471;-76
2022/10/12 10:36:03;;;;;;;20.77;19.27;;;;;;;;;;5114939;28;20905;-76
2022/10/12 10:38:32;;;;;;;21.03;19.50;;;;;;;;;;5115050;28;20495;-75
2022/10/12 10:41:03;;;;;;;21.00;19.70;;;;;;;;;;5114674;28;20852;-77
2022/10/12 10:43:32;;;;;;;21.00;19.60;;;;;;;;;;5114926;28;20480;-76
2022/10/12 10:46:00;;;;;;;21.57;19.97;;;;;;;;;;5115195;28;20447;-76
2022/10/12 10:48:29;;;;;;;22.07;20.20;;;;;;;;;;5113713;28;20456;-76
2022/10/12 10:50:59;;;;;;;21.30;19.90;;;;;;;;;;5114159;28;20452;-77
2022/10/12 10:53:28;;;;;;;20.87;19.33;;;;;;;;;;5114745;28;20444;-75
2022/10/12 10:56:00;;;;;;;22.10;20.13;;;;;;;;;;5114769;28;20440;-76
2022/10/12 10:58:33;;;;;;;21.40;20.10;;;;;;;;;;5114820;28;20485;-76
2022/10/12 11:01:03;;;;;;;22.80;20.80;;;;;;;;;;5114092;28;20465;-75
2022/10/12 11:03:32;;;;;;;21.70;20.10;;;;;;;;;;5114421;28;20478;-77
2022/10/12 11:06:05;;;;;;;22.40;20.70;;;;;;;;;;5114597;28;20562;-76
2022/10/12 11:08:34;;;;;;;21.90;20.27;;;;;;;;;;5114322;28;20451;-76
2022/10/12 11:11:04;;;;;;;23.23;21.20;;;;;;;;;;5113820;28;20422;-77
2022/10/12 11:13:35;;;;;;;21.53;20.33;;;;;;;;;;5113991;28;20553;-75
2022/10/12 11:16:05;;;;;;;22.53;20.80;;;;;;;;;;5114148;28;20402;-76
2022/10/12 11:18:35;;;;;;;21.60;20.03;;;;;;;;;;5114511;28;20471;-76
2022/10/12 11:21:05;;;;;;;22.80;20.90;;;;;;;;;;5114300;28;20849;-76
2022/10/12 11:23:38;;;;;;;21.43;20.00;;;;;;;;;;5114297;28;20435;-75
2022/10/12 11:26:09;;;;;;;22.10;20.33;;;;;;;;;;5113882;28;20432;-75
2022/10/12 11:28:38;;;;;;;22.10;20.30;;;;;;;;;;5113915;28;20449;-75
2022/10/12 11:31:06;;;;;;;21.27;19.97;;;;;;;;;;5113094;28;20922;-77
2022/10/12 11:33:37;;;;;;;21.53;20.13;;;;;;;;;;5113860;28;20442;-77
2022/10/12 11:36:07;;;;;;;21.77;20.07;;;;;;;;;;5113887;28;20531;-77
2022/10/12 11:38:36;;;;;;;22.00;20.80;;;;;;;;;;5113882;28;20461;-75
2022/10/12 11:41:06;;;;;;;21.20;19.87;;;;;;;;;;5113467;28;20459;-76
2022/10/12 11:43:36;;;;;;;20.73;19.53;;;;;;;;;;5113827;28;20467;-76
2022/10/12 11:46:07;;;;;;;22.40;20.70;;;;;;;;;;5113691;28;20426;-76
2022/10/12 11:48:37;;;;;;;22.57;20.73;;;;;;;;;;5113804;28;20862;-76
2022/10/12 11:51:05;;;;;;;22.87;21.00;;;;;;;;;;5113607;28;20431;-76
2022/10/12 11:53:35;;;;;;;22.83;21.33;;;;;;;;;;5113561;28;20442;-76
2022/10/12 11:56:08;;;;;;;22.47;20.83;;;;;;;;;;5113374;28;20799;-76
2022/10/12 11:58:37;;;;;;;22.47;21.07;;;;;;;;;;5113211;28;20493;-76
2022/10/12 12:01:11;;;;;;;22.40;21.00;;;;;;;;;;5112663;28;20451;-76
2022/10/12 12:03:56;;;;;;;22.57;20.93;;;;;;;;;;5113243;28;20452;-76
2022/10/12 12:06:41;;;;;;;22.67;21.17;;;;;;;;;;5113311;28;20423;-76
2022/10/12 12:09:20;;;;;;;21.77;20.40;;;;;;;;;;5113057;28;20440;-76
2022/10/12 12:11:47;;;;;;;22.17;20.67;;;;;;;;;;5112943;28;20427;-76
2022/10/12 12:14:33;;;;;;;22.90;21.07;;;;;;;;;;5112421;27;20495;-76
2022/10/12 12:17:14;;;;;;;21.57;20.00;;;;;;;;;;5113100;28;20462;-75
2022/10/12 12:19:42;;;;;;;21.60;20.20;;;;;;;;;;5113026;28;20883;-76
2022/10/12 12:22:22;;;;;;;21.60;20.30;;;;;;;;;;5112703;28;20444;-76
2022/10/12 12:24:57;;;;;;;23.27;21.80;;;;;;;;;;5113172;28;20485;-77
2022/10/12 12:27:30;;;;;;;22.80;21.23;;;;;;;;;;5113327;28;20780;-76
2022/10/12 12:29:58;;;;;;;22.53;20.83;;;;;;;;;;5113333;28;20433;-75
2022/10/12 12:32:27;;;;;;;21.60;20.30;;;;;;;;;;5112316;28;20468;-76
2022/10/12 12:34:56;;;;;;;22.80;21.10;;;;;;;;;;5113099;28;20447;-77
2022/10/12 12:37:25;;;;;;;22.53;20.83;;;;;;;;;;5112266;27;20483;-75
2022/10/12 12:39:54;;;;;;;22.23;20.63;;;;;;;;;;5112819;28;20472;-76
2022/10/12 12:42:23;;;;;;;22.10;20.63;;;;;;;;;;5112227;28;20458;-77
2022/10/12 12:44:51;;;;;;;22.83;21.20;;;;;;;;;;5113322;28;20463;-76
2022/10/12 12:47:36;;;;;;;22.00;20.40;;;;;;;;;;5112681;28;20950;-75
2022/10/12 12:50:26;;;;;;;22.00;20.70;;;;;;;;;;5113202;28;20399;-76
2022/10/12 12:52:58;;;;;;;23.77;21.40;;;;;;;;;;5112690;28;20964;-75
2022/10/12 12:55:37;;;;;;;21.87;20.57;;;;;;;;;;5113080;28;20785;-76
2022/10/12 12:58:16;;;;;;;23.60;22.00;;;;;;;;;;5112569;28;21014;-76
2022/10/12 13:00:51;;;;;;;22.60;20.93;;;;;;;;;;5112610;28;20423;-75
2022/10/12 13:03:36;;;;;;;22.03;20.73;;;;;;;;;;5112497;28;20430;-76
2022/10/12 13:06:31;;;;;;;22.80;21.20;;;;;;;;;;5112916;28;20399;-76
2022/10/12 13:09:07;;;;;;;23.27;21.50;;;;;;;;;;5112902;28;20403;-76
2022/10/12 13:11:44;;;;;;;21.73;20.23;;;;;;;;;;5113102;28;20421;-76
2022/10/12 13:14:18;;;;;;;21.90;20.60;;;;;;;;;;5116414;28;20446;-76
2022/10/12 13:16:54;;;;;;;21.80;20.23;;;;;;;;;;5116268;28;20417;-76
2022/10/12 13:19:22;;;;;;;23.70;21.70;;;;;;;;;;5116475;28;20886;-76
2022/10/12 13:21:52;;;;;;;21.63;20.43;;;;;;;;;;5115781;28;20450;-76
2022/10/12 13:24:22;;;;;;;23.03;21.37;;;;;;;;;;5116443;28;20429;-76
2022/10/12 13:26:51;;;;;;;23.70;21.80;;;;;;;;;;5116015;28;20447;-77
2022/10/12 13:29:23;;;;;;;23.60;21.80;;;;;;;;;;5116451;28;21174;-76
2022/10/12 13:31:52;;;;;;;21.97;20.43;;;;;;;;;;5115683;28;20479;-77
2022/10/12 13:34:22;;;;;;;21.77;19.83;;;;;;;;;;5116125;28;20978;-77
2022/10/12 13:36:54;;;;;;;24.60;22.63;;;;;;;;;;5116469;28;20432;-77
2022/10/12 13:39:22;;;;;;;21.73;20.20;;;;;;;;;;5115773;28;20455;-77
2022/10/12 13:41:51;;;;;;;22.00;20.40;;;;;;;;;;5115259;28;20447;-76
2022/10/12 13:44:23;;;;;;;22.20;20.70;;;;;;;;;;5115958;28;20470;-76
2022/10/12 13:46:51;;;;;;;22.83;21.33;;;;;;;;;;5115876;28;20418;-76
2022/10/12 13:49:19;;;;;;;22.30;20.90;;;;;;;;;;5115920;28;20479;-76
2022/10/12 13:51:48;;;;;;;22.93;21.10;;;;;;;;;;5115214;28;20455;-76
2022/10/12 13:54:19;;;;;;;22.13;20.83;;;;;;;;;;5115599;28;20443;-76
2022/10/12 13:56:47;;;;;;;23.30;21.80;;;;;;;;;;5115785;28;20409;-75
2022/10/12 13:59:17;;;;;;;24.27;22.60;;;;;;;;;;5115271;28;20993;-76
2022/10/12 14:01:55;;;;;;;23.40;22.10;;;;;;;;;;5115265;28;20842;-76
2022/10/12 14:04:23;;;;;;;23.83;22.37;;;;;;;;;;5115291;28;20484;-76
2022/10/12 14:06:55;;;;;;;23.10;21.50;;;;;;;;;;5115307;28;20920;-76
2022/10/12 14:09:25;;;;;;;23.80;22.07;;;;;;;;;;5115854;28;20407;-76
2022/10/12 14:11:53;;;;;;;23.20;21.70;;;;;;;;;;5114921;28;20440;-77
2022/10/12 14:14:25;;;;;;;23.10;21.23;;;;;;;;;;5115310;28;20457;-77
2022/10/12 14:16:52;;;;;;;22.60;21.13;;;;;;;;;;5115102;28;20433;-76
2022/10/12 14:19:20;;;;;;;22.10;20.70;;;;;;;;;;5114970;28;20476;-77
2022/10/12 14:21:49;;;;;;;23.80;22.20;;;;;;;;;;5114729;28;20427;-76
2022/10/12 14:24:18;;;;;;;22.80;21.40;;;;;;;;;;5114732;28;20482;-76
2022/10/12 14:26:52;;;;;;;22.27;20.90;;;;;;;;;;5114966;28;20938;-76
2022/10/12 14:29:27;;;;;;;22.90;21.10;;;;;;;;;;5115202;28;20461;-76